sensor_id;sensor_type;location;lat;lon;timestamp;P1;durP1;ratioP1;P2;durP2;ratioP2
20036;SDS011;10179;42.640;23.312;2023-03-01T00:01:55;5.80;;;3.67;;
20036;SDS011;10179;42.640;23.312;2023-03-01T00:04:20;5.55;;;3.42;;
20036;SDS011;10179;42.640;23.312;2023-03-01T00:06:46;5.53;;;3.50;;
20036;SDS011;10179;42.640;23.312;2023-03-01T00:09:13;6.03;;;3.08;;
20036;SDS011;10179;42.640;23.312;2023-03-01T00:11:39;5.40;;;3.97;;
20036;SDS011;10179;42.640;23.312;2023-03-01T00:14:04;6.03;;;3.70;;
20036;SDS011;10179;42.640;23.312;2023-03-01T00:16:30;6.50;;;4.00;;
20036;SDS011;10179;42.640;23.312;2023-03-01T00:19:01;4.43;;;3.47;;
20036;SDS011;10179;42.640;23.312;2023-03-01T00:21:27;6.30;;;3.83;;
20036;SDS011;10179;42.640;23.312;2023-03-01T00:23:54;4.95;;;3.63;;
20036;SDS011;10179;42.640;23.312;2023-03-01T00:26:20;5.10;;;3.75;;
20036;SDS011;10179;42.640;23.312;2023-03-01T00:28:47;5.53;;;3.78;;
20036;SDS011;10179;42.640;23.312;2023-03-01T00:31:15;6.25;;;3.85;;
20036;SDS011;10179;42.640;23.312;2023-03-01T00:33:42;5.57;;;4.05;;
20036;SDS011;10179;42.640;23.312;2023-03-01T00:36:09;5.65;;;4.35;;
20036;SDS011;10179;42.640;23.312;2023-03-01T00:38:37;5.55;;;4.05;;
20036;SDS011;10179;42.640;23.312;2023-03-01T00:41:07;5.47;;;3.92;;
20036;SDS011;10179;42.640;23.312;2023-03-01T00:43:35;5.70;;;3.72;;
20036;SDS011;10179;42.640;23.312;2023-03-01T00:46:11;4.53;;;3.35;;
20036;SDS011;10179;42.640;23.312;2023-03-01T00:48:41;5.30;;;3.03;;
20036;SDS011;10179;42.640;23.312;2023-03-01T00:51:07;4.72;;;3.10;;
20036;SDS011;10179;42.640;23.312;2023-03-01T00:53:35;5.85;;;3.30;;
20036;SDS011;10179;42.640;23.312;2023-03-01T00:56:01;4.28;;;3.10;;
20036;SDS011;10179;42.640;23.312;2023-03-01T00:58:28;4.80;;;3.08;;
20036;SDS011;10179;42.640;23.312;2023-03-01T01:00:53;2.90;;;2.53;;
20036;SDS011;10179;42.640;23.312;2023-03-01T01:03:19;4.65;;;3.10;;
20036;SDS011;10179;42.640;23.312;2023-03-01T01:05:44;4.70;;;3.13;;
20036;SDS011;10179;42.640;23.312;2023-03-01T01:08:10;4.70;;;2.97;;
20036;SDS011;10179;42.640;23.312;2023-03-01T01:10:36;4.00;;;2.90;;
20036;SDS011;10179;42.640;23.312;2023-03-01T01:13:01;4.72;;;2.83;;
20036;SDS011;10179;42.640;23.312;2023-03-01T01:15:27;3.22;;;2.17;;
20036;SDS011;10179;42.640;23.312;2023-03-01T01:17:53;2.75;;;2.03;;
20036;SDS011;10179;42.640;23.312;2023-03-01T01:20:18;3.72;;;2.47;;
20036;SDS011;10179;42.640;23.312;2023-03-01T01:22:44;3.90;;;2.03;;
20036;SDS011;10179;42.640;23.312;2023-03-01T01:25:09;3.08;;;2.13;;
20036;SDS011;10179;42.640;23.312;2023-03-01T01:27:35;3.78;;;2.60;;
20036;SDS011;10179;42.640;23.312;2023-03-01T01:30:01;4.82;;;2.30;;
20036;SDS011;10179;42.640;23.312;2023-03-01T01:32:26;2.90;;;2.20;;
20036;SDS011;10179;42.640;23.312;2023-03-01T01:34:52;3.13;;;2.60;;
20036;SDS011;10179;42.640;23.312;2023-03-01T01:37:17;3.53;;;2.45;;
20036;SDS011;10179;42.640;23.312;2023-03-01T01:39:43;2.83;;;1.95;;
20036;SDS011;10179;42.640;23.312;2023-03-01T01:42:12;4.30;;;2.35;;
20036;SDS011;10179;42.640;23.312;2023-03-01T01:47:11;2.50;;;2.00;;
20036;SDS011;10179;42.640;23.312;2023-03-01T01:49:41;2.65;;;1.98;;
20036;SDS011;10179;42.640;23.312;2023-03-01T01:52:23;4.22;;;1.85;;
20036;SDS011;10179;42.640;23.312;2023-03-01T01:57:37;2.17;;;1.80;;
20036;SDS011;10179;42.640;23.312;2023-03-01T02:00:11;2.40;;;2.00;;
20036;SDS011;10179;42.640;23.312;2023-03-01T02:02:38;2.20;;;2.00;;
20036;SDS011;10179;42.640;23.312;2023-03-01T02:07:52;2.13;;;1.83;;
20036;SDS011;10179;42.640;23.312;2023-03-01T02:10:18;2.63;;;2.13;;
20036;SDS011;10179;42.640;23.312;2023-03-01T02:12:46;2.08;;;1.88;;
20036;SDS011;10179;42.640;23.312;2023-03-01T02:15:11;2.03;;;1.73;;
20036;SDS011;10179;42.640;23.312;2023-03-01T02:17:37;2.38;;;1.65;;
20036;SDS011;10179;42.640;23.312;2023-03-01T02:22:37;1.73;;;1.63;;
20036;SDS011;10179;42.640;23.312;2023-03-01T02:30:19;2.28;;;1.88;;
20036;SDS011;10179;42.640;23.312;2023-03-01T02:32:47;2.00;;;1.80;;
20036;SDS011;10179;42.640;23.312;2023-03-01T02:35:14;2.95;;;1.75;;
20036;SDS011;10179;42.640;23.312;2023-03-01T02:37:42;2.70;;;1.95;;
20036;SDS011;10179;42.640;23.312;2023-03-01T02:40:16;1.95;;;1.75;;
20036;SDS011;10179;42.640;23.312;2023-03-01T02:42:50;2.67;;;2.20;;
20036;SDS011;10179;42.640;23.312;2023-03-01T02:45:19;2.22;;;1.98;;
20036;SDS011;10179;42.640;23.312;2023-03-01T02:47:45;2.35;;;1.98;;
20036;SDS011;10179;42.640;23.312;2023-03-01T02:50:12;2.95;;;2.10;;
20036;SDS011;10179;42.640;23.312;2023-03-01T02:52:55;3.30;;;2.58;;
20036;SDS011;10179;42.640;23.312;2023-03-01T02:55:25;2.55;;;2.17;;
20036;SDS011;10179;42.640;23.312;2023-03-01T02:57:52;3.10;;;2.38;;
20036;SDS011;10179;42.640;23.312;2023-03-01T03:00:23;3.33;;;2.58;;
20036;SDS011;10179;42.640;23.312;2023-03-01T03:02:53;3.10;;;2.80;;
20036;SDS011;10179;42.640;23.312;2023-03-01T03:05:20;3.40;;;2.58;;
20036;SDS011;10179;42.640;23.312;2023-03-01T03:07:48;4.40;;;3.05;;
20036;SDS011;10179;42.640;23.312;2023-03-01T03:10:23;5.68;;;3.67;;
20036;SDS011;10179;42.640;23.312;2023-03-01T03:12:58;5.50;;;3.25;;
20036;SDS011;10179;42.640;23.312;2023-03-01T03:15:26;4.35;;;3.10;;
20036;SDS011;10179;42.640;23.312;2023-03-01T03:17:53;4.13;;;3.28;;
20036;SDS011;10179;42.640;23.312;2023-03-01T03:20:20;4.72;;;3.28;;
20036;SDS011;10179;42.640;23.312;2023-03-01T03:22:48;6.32;;;3.90;;
20036;SDS011;10179;42.640;23.312;2023-03-01T03:25:16;4.45;;;2.90;;
20036;SDS011;10179;42.640;23.312;2023-03-01T03:27:43;4.22;;;2.72;;
20036;SDS011;10179;42.640;23.312;2023-03-01T03:30:10;4.82;;;2.95;;
20036;SDS011;10179;42.640;23.312;2023-03-01T03:32:39;5.25;;;3.50;;
20036;SDS011;10179;42.640;23.312;2023-03-01T03:35:05;3.97;;;2.97;;
20036;SDS011;10179;42.640;23.312;2023-03-01T03:37:37;4.38;;;3.20;;
20036;SDS011;10179;42.640;23.312;2023-03-01T03:40:22;5.45;;;3.58;;
20036;SDS011;10179;42.640;23.312;2023-03-01T03:42:48;5.70;;;3.40;;
20036;SDS011;10179;42.640;23.312;2023-03-01T03:45:14;4.70;;;3.40;;
20036;SDS011;10179;42.640;23.312;2023-03-01T03:47:41;5.05;;;2.95;;
20036;SDS011;10179;42.640;23.312;2023-03-01T03:50:07;4.00;;;2.63;;
20036;SDS011;10179;42.640;23.312;2023-03-01T03:52:33;4.05;;;3.00;;
20036;SDS011;10179;42.640;23.312;2023-03-01T03:54:59;3.95;;;2.47;;
20036;SDS011;10179;42.640;23.312;2023-03-01T04:00:09;3.95;;;2.83;;
20036;SDS011;10179;42.640;23.312;2023-03-01T04:02:40;2.95;;;2.20;;
20036;SDS011;10179;42.640;23.312;2023-03-01T04:05:06;2.95;;;2.28;;
20036;SDS011;10179;42.640;23.312;2023-03-01T04:07:33;2.63;;;1.90;;
20036;SDS011;10179;42.640;23.312;2023-03-01T04:10:03;3.65;;;2.42;;
20036;SDS011;10179;42.640;23.312;2023-03-01T04:12:30;3.00;;;2.17;;
20036;SDS011;10179;42.640;23.312;2023-03-01T04:14:55;3.42;;;2.05;;
20036;SDS011;10179;42.640;23.312;2023-03-01T04:17:20;3.88;;;2.30;;
20036;SDS011;10179;42.640;23.312;2023-03-01T04:19:46;3.05;;;2.17;;
20036;SDS011;10179;42.640;23.312;2023-03-01T04:22:14;3.47;;;2.53;;
20036;SDS011;10179;42.640;23.312;2023-03-01T04:24:42;4.00;;;2.80;;
20036;SDS011;10179;42.640;23.312;2023-03-01T04:27:08;4.95;;;3.25;;
20036;SDS011;10179;42.640;23.312;2023-03-01T04:29:34;5.03;;;3.10;;
20036;SDS011;10179;42.640;23.312;2023-03-01T04:31:59;4.25;;;2.70;;
20036;SDS011;10179;42.640;23.312;2023-03-01T04:34:25;4.75;;;2.92;;
20036;SDS011;10179;42.640;23.312;2023-03-01T04:36:52;4.78;;;3.42;;
20036;SDS011;10179;42.640;23.312;2023-03-01T04:39:17;4.97;;;3.10;;
20036;SDS011;10179;42.640;23.312;2023-03-01T04:41:43;4.82;;;3.60;;
20036;SDS011;10179;42.640;23.312;2023-03-01T04:44:09;5.00;;;3.85;;
20036;SDS011;10179;42.640;23.312;2023-03-01T04:46:35;8.63;;;5.85;;
20036;SDS011;10179;42.640;23.312;2023-03-01T04:49:01;8.57;;;3.50;;
20036;SDS011;10179;42.640;23.312;2023-03-01T04:51:27;10.18;;;5.53;;
20036;SDS011;10179;42.640;23.312;2023-03-01T04:53:53;9.00;;;5.40;;
20036;SDS011;10179;42.640;23.312;2023-03-01T04:56:18;6.32;;;4.38;;
20036;SDS011;10179;42.640;23.312;2023-03-01T04:58:44;6.47;;;3.78;;
20036;SDS011;10179;42.640;23.312;2023-03-01T05:01:10;4.90;;;3.10;;
20036;SDS011;10179;42.640;23.312;2023-03-01T05:03:43;4.80;;;3.42;;
20036;SDS011;10179;42.640;23.312;2023-03-01T05:06:11;4.82;;;3.05;;
20036;SDS011;10179;42.640;23.312;2023-03-01T05:08:37;4.70;;;3.10;;
20036;SDS011;10179;42.640;23.312;2023-03-01T05:11:03;4.00;;;2.80;;
20036;SDS011;10179;42.640;23.312;2023-03-01T05:13:30;7.65;;;3.45;;
20036;SDS011;10179;42.640;23.312;2023-03-01T05:15:57;3.55;;;2.50;;
20036;SDS011;10179;42.640;23.312;2023-03-01T05:18:25;5.22;;;3.17;;
20036;SDS011;10179;42.640;23.312;2023-03-01T05:20:55;5.28;;;2.63;;
20036;SDS011;10179;42.640;23.312;2023-03-01T05:23:28;3.45;;;2.72;;
20036;SDS011;10179;42.640;23.312;2023-03-01T05:25:53;7.90;;;2.72;;
20036;SDS011;10179;42.640;23.312;2023-03-01T05:28:20;4.55;;;2.45;;
20036;SDS011;10179;42.640;23.312;2023-03-01T05:30:46;3.55;;;2.33;;
20036;SDS011;10179;42.640;23.312;2023-03-01T05:33:11;3.50;;;1.92;;
20036;SDS011;10179;42.640;23.312;2023-03-01T05:35:41;5.70;;;2.35;;
20036;SDS011;10179;42.640;23.312;2023-03-01T05:38:08;5.75;;;2.08;;
20036;SDS011;10179;42.640;23.312;2023-03-01T05:40:38;5.53;;;2.22;;
20036;SDS011;10179;42.640;23.312;2023-03-01T05:43:04;3.33;;;2.00;;
20036;SDS011;10179;42.640;23.312;2023-03-01T05:45:30;3.28;;;2.35;;
20036;SDS011;10179;42.640;23.312;2023-03-01T05:47:57;3.15;;;2.40;;
20036;SDS011;10179;42.640;23.312;2023-03-01T05:50:27;2.35;;;1.65;;
20036;SDS011;10179;42.640;23.312;2023-03-01T05:53:01;3.90;;;1.98;;
20036;SDS011;10179;42.640;23.312;2023-03-01T05:55:27;6.80;;;4.38;;
20036;SDS011;10179;42.640;23.312;2023-03-01T05:57:54;4.10;;;2.53;;
20036;SDS011;10179;42.640;23.312;2023-03-01T06:00:20;16.60;;;7.28;;
20036;SDS011;10179;42.640;23.312;2023-03-01T06:02:48;7.22;;;3.65;;
20036;SDS011;10179;42.640;23.312;2023-03-01T06:05:14;5.13;;;3.45;;
20036;SDS011;10179;42.640;23.312;2023-03-01T06:07:40;2.53;;;1.73;;
20036;SDS011;10179;42.640;23.312;2023-03-01T06:10:06;3.20;;;1.65;;
20036;SDS011;10179;42.640;23.312;2023-03-01T06:12:34;2.92;;;1.98;;
20036;SDS011;10179;42.640;23.312;2023-03-01T06:15:00;3.63;;;1.80;;
20036;SDS011;10179;42.640;23.312;2023-03-01T06:17:28;3.50;;;1.80;;
20036;SDS011;10179;42.640;23.312;2023-03-01T06:19:55;2.78;;;2.05;;
20036;SDS011;10179;42.640;23.312;2023-03-01T06:22:20;3.92;;;2.38;;
20036;SDS011;10179;42.640;23.312;2023-03-01T06:24:45;4.25;;;2.50;;
20036;SDS011;10179;42.640;23.312;2023-03-01T06:27:11;4.88;;;2.10;;
20036;SDS011;10179;42.640;23.312;2023-03-01T06:29:36;6.68;;;3.50;;
20036;SDS011;10179;42.640;23.312;2023-03-01T06:32:02;8.65;;;4.75;;
20036;SDS011;10179;42.640;23.312;2023-03-01T06:34:28;8.93;;;4.43;;
20036;SDS011;10179;42.640;23.312;2023-03-01T06:36:54;6.72;;;3.03;;
20036;SDS011;10179;42.640;23.312;2023-03-01T06:39:19;5.70;;;2.60;;
20036;SDS011;10179;42.640;23.312;2023-03-01T06:41:45;4.88;;;1.80;;
20036;SDS011;10179;42.640;23.312;2023-03-01T06:44:10;3.47;;;1.80;;
20036;SDS011;10179;42.640;23.312;2023-03-01T06:46:35;2.60;;;1.85;;
20036;SDS011;10179;42.640;23.312;2023-03-01T06:49:01;1.92;;;1.40;;
20036;SDS011;10179;42.640;23.312;2023-03-01T06:51:29;5.30;;;1.58;;
20036;SDS011;10179;42.640;23.312;2023-03-01T06:53:55;1.40;;;1.10;;
20036;SDS011;10179;42.640;23.312;2023-03-01T06:56:20;2.20;;;1.40;;
20036;SDS011;10179;42.640;23.312;2023-03-01T06:58:46;3.83;;;1.27;;
20036;SDS011;10179;42.640;23.312;2023-03-01T07:01:11;6.78;;;1.60;;
20036;SDS011;10179;42.640;23.312;2023-03-01T07:03:36;6.55;;;1.40;;
20036;SDS011;10179;42.640;23.312;2023-03-01T07:06:02;2.97;;;1.33;;
20036;SDS011;10179;42.640;23.312;2023-03-01T07:08:27;4.07;;;1.50;;
20036;SDS011;10179;42.640;23.312;2023-03-01T07:10:56;2.83;;;1.50;;
20036;SDS011;10179;42.640;23.312;2023-03-01T07:13:22;2.33;;;1.60;;
20036;SDS011;10179;42.640;23.312;2023-03-01T07:15:48;2.28;;;1.80;;
20036;SDS011;10179;42.640;23.312;2023-03-01T07:18:13;2.67;;;1.80;;
20036;SDS011;10179;42.640;23.312;2023-03-01T07:20:38;2.92;;;1.70;;
20036;SDS011;10179;42.640;23.312;2023-03-01T07:23:05;2.90;;;1.85;;
20036;SDS011;10179;42.640;23.312;2023-03-01T07:25:30;2.55;;;1.50;;
20036;SDS011;10179;42.640;23.312;2023-03-01T07:27:57;3.78;;;1.63;;
20036;SDS011;10179;42.640;23.312;2023-03-01T07:30:22;4.28;;;1.95;;
20036;SDS011;10179;42.640;23.312;2023-03-01T07:32:51;3.30;;;2.28;;
20036;SDS011;10179;42.640;23.312;2023-03-01T07:35:16;6.45;;;2.03;;
20036;SDS011;10179;42.640;23.312;2023-03-01T07:37:42;7.93;;;2.22;;
20036;SDS011;10179;42.640;23.312;2023-03-01T07:40:08;4.85;;;1.95;;
20036;SDS011;10179;42.640;23.312;2023-03-01T07:42:34;5.20;;;1.50;;
20036;SDS011;10179;42.640;23.312;2023-03-01T07:44:59;7.65;;;2.47;;
20036;SDS011;10179;42.640;23.312;2023-03-01T07:47:24;3.40;;;1.80;;
20036;SDS011;10179;42.640;23.312;2023-03-01T07:49:50;2.97;;;1.40;;
20036;SDS011;10179;42.640;23.312;2023-03-01T07:52:15;3.03;;;1.55;;
20036;SDS011;10179;42.640;23.312;2023-03-01T07:54:42;2.25;;;1.73;;
20036;SDS011;10179;42.640;23.312;2023-03-01T07:57:09;1.58;;;1.30;;
20036;SDS011;10179;42.640;23.312;2023-03-01T07:59:34;3.85;;;2.45;;
20036;SDS011;10179;42.640;23.312;2023-03-01T08:02:00;2.17;;;1.70;;
20036;SDS011;10179;42.640;23.312;2023-03-01T08:04:25;2.78;;;1.60;;
20036;SDS011;10179;42.640;23.312;2023-03-01T08:06:51;3.53;;;1.23;;
20036;SDS011;10179;42.640;23.312;2023-03-01T08:09:17;3.33;;;2.00;;
20036;SDS011;10179;42.640;23.312;2023-03-01T08:11:43;2.33;;;1.55;;
20036;SDS011;10179;42.640;23.312;2023-03-01T08:14:08;7.05;;;2.70;;
20036;SDS011;10179;42.640;23.312;2023-03-01T08:16:35;7.28;;;3.47;;
20036;SDS011;10179;42.640;23.312;2023-03-01T08:19:08;9.20;;;4.63;;
20036;SDS011;10179;42.640;23.312;2023-03-01T08:21:34;8.40;;;4.75;;
20036;SDS011;10179;42.640;23.312;2023-03-01T08:24:00;7.28;;;4.03;;
20036;SDS011;10179;42.640;23.312;2023-03-01T08:26:27;3.80;;;2.90;;
20036;SDS011;10179;42.640;23.312;2023-03-01T08:28:52;5.47;;;2.42;;
20036;SDS011;10179;42.640;23.312;2023-03-01T08:33:52;2.50;;;1.95;;
20036;SDS011;10179;42.640;23.312;2023-03-01T08:36:23;4.30;;;2.47;;
20036;SDS011;10179;42.640;23.312;2023-03-01T08:38:49;9.52;;;4.22;;
20036;SDS011;10179;42.640;23.312;2023-03-01T08:41:15;6.47;;;3.28;;
20036;SDS011;10179;42.640;23.312;2023-03-01T08:43:41;13.52;;;6.65;;
20036;SDS011;10179;42.640;23.312;2023-03-01T08:46:07;3.13;;;2.42;;
20036;SDS011;10179;42.640;23.312;2023-03-01T08:48:32;2.30;;;1.73;;
20036;SDS011;10179;42.640;23.312;2023-03-01T08:51:06;2.53;;;1.77;;
20036;SDS011;10179;42.640;23.312;2023-03-01T08:53:33;5.43;;;2.17;;
20036;SDS011;10179;42.640;23.312;2023-03-01T08:56:02;3.63;;;1.98;;
20036;SDS011;10179;42.640;23.312;2023-03-01T08:58:28;2.58;;;1.83;;
20036;SDS011;10179;42.640;23.312;2023-03-01T09:00:54;4.88;;;1.52;;
20036;SDS011;10179;42.640;23.312;2023-03-01T09:03:21;3.80;;;2.05;;
20036;SDS011;10179;42.640;23.312;2023-03-01T09:05:47;2.25;;;1.42;;
20036;SDS011;10179;42.640;23.312;2023-03-01T09:08:14;2.55;;;1.52;;
20036;SDS011;10179;42.640;23.312;2023-03-01T09:10:39;4.22;;;2.20;;
20036;SDS011;10179;42.640;23.312;2023-03-01T09:13:05;3.53;;;1.50;;
20036;SDS011;10179;42.640;23.312;2023-03-01T09:15:30;8.57;;;2.05;;
20036;SDS011;10179;42.640;23.312;2023-03-01T09:17:56;4.88;;;1.95;;
20036;SDS011;10179;42.640;23.312;2023-03-01T09:20:21;3.67;;;1.75;;
20036;SDS011;10179;42.640;23.312;2023-03-01T09:22:46;2.53;;;1.55;;
20036;SDS011;10179;42.640;23.312;2023-03-01T09:25:12;2.75;;;1.77;;
20036;SDS011;10179;42.640;23.312;2023-03-01T09:27:37;1.83;;;1.50;;
20036;SDS011;10179;42.640;23.312;2023-03-01T09:30:03;2.92;;;1.70;;
20036;SDS011;10179;42.640;23.312;2023-03-01T09:32:30;3.08;;;1.83;;
20036;SDS011;10179;42.640;23.312;2023-03-01T09:34:56;5.93;;;1.98;;
20036;SDS011;10179;42.640;23.312;2023-03-01T09:37:34;3.10;;;1.92;;
20036;SDS011;10179;42.640;23.312;2023-03-01T09:40:00;5.82;;;1.80;;
20036;SDS011;10179;42.640;23.312;2023-03-01T09:42:28;4.20;;;1.67;;
20036;SDS011;10179;42.640;23.312;2023-03-01T09:45:39;6.78;;;1.80;;
20036;SDS011;10179;42.640;23.312;2023-03-01T09:47:50;2.47;;;1.73;;
20036;SDS011;10179;42.640;23.312;2023-03-01T09:50:19;3.60;;;2.58;;
20036;SDS011;10179;42.640;23.312;2023-03-01T09:55:48;5.10;;;2.45;;
20036;SDS011;10179;42.640;23.312;2023-03-01T10:00:59;2.35;;;1.73;;
20036;SDS011;10179;42.640;23.312;2023-03-01T10:03:49;3.42;;;2.03;;
20036;SDS011;10179;42.640;23.312;2023-03-01T10:06:42;6.22;;;2.20;;
20036;SDS011;10179;42.640;23.312;2023-03-01T10:09:16;4.13;;;1.90;;
20036;SDS011;10179;42.640;23.312;2023-03-01T10:11:44;3.92;;;2.22;;
20036;SDS011;10179;42.640;23.312;2023-03-01T10:16:58;3.75;;;2.10;;
20036;SDS011;10179;42.640;23.312;2023-03-01T10:22:02;3.70;;;2.13;;
20036;SDS011;10179;42.640;23.312;2023-03-01T10:24:43;3.55;;;2.28;;
20036;SDS011;10179;42.640;23.312;2023-03-01T10:29:42;6.90;;;2.25;;
20036;SDS011;10179;42.640;23.312;2023-03-01T10:32:15;3.40;;;2.38;;
20036;SDS011;10179;42.640;23.312;2023-03-01T10:34:42;4.78;;;2.92;;
20036;SDS011;10179;42.640;23.312;2023-03-01T10:37:17;4.47;;;2.53;;
20036;SDS011;10179;42.640;23.312;2023-03-01T10:40:06;4.32;;;2.83;;
20036;SDS011;10179;42.640;23.312;2023-03-01T10:42:54;3.60;;;2.30;;
20036;SDS011;10179;42.640;23.312;2023-03-01T10:48:06;4.38;;;2.47;;
20036;SDS011;10179;42.640;23.312;2023-03-01T10:50:31;4.35;;;2.50;;
20036;SDS011;10179;42.640;23.312;2023-03-01T10:52:58;4.35;;;2.30;;
20036;SDS011;10179;42.640;23.312;2023-03-01T10:55:36;6.83;;;3.03;;
20036;SDS011;10179;42.640;23.312;2023-03-01T11:03:21;5.50;;;2.60;;
20036;SDS011;10179;42.640;23.312;2023-03-01T11:05:56;5.35;;;2.80;;
20036;SDS011;10179;42.640;23.312;2023-03-01T11:08:44;8.70;;;3.13;;
20036;SDS011;10179;42.640;23.312;2023-03-01T11:13:50;5.13;;;3.10;;
20036;SDS011;10179;42.640;23.312;2023-03-01T11:18:58;3.15;;;2.50;;
20036;SDS011;10179;42.640;23.312;2023-03-01T11:21:25;15.20;;;3.03;;
20036;SDS011;10179;42.640;23.312;2023-03-01T11:23:54;3.78;;;2.28;;
20036;SDS011;10179;42.640;23.312;2023-03-01T11:26:20;4.03;;;2.72;;
20036;SDS011;10179;42.640;23.312;2023-03-01T11:28:48;5.10;;;2.40;;
20036;SDS011;10179;42.640;23.312;2023-03-01T11:31:18;4.23;;;3.10;;
20036;SDS011;10179;42.640;23.312;2023-03-01T11:34:08;5.55;;;2.15;;
20036;SDS011;10179;42.640;23.312;2023-03-01T11:36:49;6.95;;;2.47;;
20036;SDS011;10179;42.640;23.312;2023-03-01T11:41:52;4.90;;;2.50;;
20036;SDS011;10179;42.640;23.312;2023-03-01T11:44:35;4.25;;;2.30;;
20036;SDS011;10179;42.640;23.312;2023-03-01T12:09:32;5.85;;;3.38;;
20036;SDS011;10179;42.640;23.312;2023-03-01T12:31:37;4.20;;;2.30;;
20036;SDS011;10179;42.640;23.312;2023-03-01T12:42:58;4.95;;;2.67;;
20036;SDS011;10179;42.640;23.312;2023-03-01T12:48:28;5.78;;;3.00;;
20036;SDS011;10179;42.640;23.312;2023-03-01T12:51:03;3.67;;;2.30;;
20036;SDS011;10179;42.640;23.312;2023-03-01T12:53:36;5.20;;;2.67;;
20036;SDS011;10179;42.640;23.312;2023-03-01T12:56:07;2.53;;;2.22;;
20036;SDS011;10179;42.640;23.312;2023-03-01T13:01:21;4.72;;;2.72;;
20036;SDS011;10179;42.640;23.312;2023-03-01T13:09:39;3.33;;;2.40;;
20036;SDS011;10179;42.640;23.312;2023-03-01T13:17:47;3.58;;;2.40;;
20036;SDS011;10179;42.640;23.312;2023-03-01T13:20:15;5.35;;;3.00;;
20036;SDS011;10179;42.640;23.312;2023-03-01T13:22:45;5.28;;;2.80;;
20036;SDS011;10179;42.640;23.312;2023-03-01T13:25:16;5.70;;;2.75;;
20036;SDS011;10179;42.640;23.312;2023-03-01T13:27:44;4.43;;;2.83;;
20036;SDS011;10179;42.640;23.312;2023-03-01T13:35:53;6.00;;;2.80;;
20036;SDS011;10179;42.640;23.312;2023-03-01T13:41:14;3.90;;;2.55;;
20036;SDS011;10179;42.640;23.312;2023-03-01T13:43:41;5.35;;;3.22;;
20036;SDS011;10179;42.640;23.312;2023-03-01T13:46:20;5.47;;;3.20;;
20036;SDS011;10179;42.640;23.312;2023-03-01T13:48:52;5.85;;;2.85;;
20036;SDS011;10179;42.640;23.312;2023-03-01T13:51:23;4.85;;;2.47;;
20036;SDS011;10179;42.640;23.312;2023-03-01T13:53:50;6.97;;;3.00;;
20036;SDS011;10179;42.640;23.312;2023-03-01T13:56:27;6.13;;;2.80;;
20036;SDS011;10179;42.640;23.312;2023-03-01T13:58:59;7.97;;;2.78;;
20036;SDS011;10179;42.640;23.312;2023-03-01T14:01:34;6.40;;;2.58;;
20036;SDS011;10179;42.640;23.312;2023-03-01T14:04:01;6.47;;;2.90;;
20036;SDS011;10179;42.640;23.312;2023-03-01T14:06:32;4.63;;;2.47;;
20036;SDS011;10179;42.640;23.312;2023-03-01T14:09:05;5.20;;;2.40;;
20036;SDS011;10179;42.640;23.312;2023-03-01T14:19:29;6.03;;;3.40;;
20036;SDS011;10179;42.640;23.312;2023-03-01T14:22:04;3.10;;;2.42;;
20036;SDS011;10179;42.640;23.312;2023-03-01T14:24:58;3.58;;;2.33;;
20036;SDS011;10179;42.640;23.312;2023-03-01T14:27:26;6.47;;;2.53;;
20036;SDS011;10179;42.640;23.312;2023-03-01T14:29:57;3.83;;;2.65;;
20036;SDS011;10179;42.640;23.312;2023-03-01T14:32:29;4.05;;;2.50;;
20036;SDS011;10179;42.640;23.312;2023-03-01T14:34:57;3.50;;;2.65;;
20036;SDS011;10179;42.640;23.312;2023-03-01T14:39:54;7.50;;;2.40;;
20036;SDS011;10179;42.640;23.312;2023-03-01T14:42:21;6.88;;;3.20;;
20036;SDS011;10179;42.640;23.312;2023-03-01T14:44:49;4.65;;;2.38;;
20036;SDS011;10179;42.640;23.312;2023-03-01T14:47:23;5.03;;;3.28;;
20036;SDS011;10179;42.640;23.312;2023-03-01T14:49:51;9.95;;;2.85;;
20036;SDS011;10179;42.640;23.312;2023-03-01T14:52:23;7.72;;;3.25;;
20036;SDS011;10179;42.640;23.312;2023-03-01T14:54:56;4.32;;;2.83;;
20036;SDS011;10179;42.640;23.312;2023-03-01T14:57:22;6.38;;;2.97;;
20036;SDS011;10179;42.640;23.312;2023-03-01T14:59:50;5.68;;;2.90;;
20036;SDS011;10179;42.640;23.312;2023-03-01T15:02:20;6.15;;;2.60;;
20036;SDS011;10179;42.640;23.312;2023-03-01T15:04:49;4.55;;;2.67;;
20036;SDS011;10179;42.640;23.312;2023-03-01T15:07:21;4.95;;;2.72;;
20036;SDS011;10179;42.640;23.312;2023-03-01T15:09:50;5.13;;;3.03;;
20036;SDS011;10179;42.640;23.312;2023-03-01T15:17:58;8.35;;;3.03;;
20036;SDS011;10179;42.640;23.312;2023-03-01T15:20:26;9.30;;;3.75;;
20036;SDS011;10179;42.640;23.312;2023-03-01T15:22:55;8.65;;;3.63;;
20036;SDS011;10179;42.640;23.312;2023-03-01T15:25:22;7.85;;;3.72;;
20036;SDS011;10179;42.640;23.312;2023-03-01T15:27:51;17.50;;;4.05;;
20036;SDS011;10179;42.640;23.312;2023-03-01T15:30:35;8.38;;;3.75;;
20036;SDS011;10179;42.640;23.312;2023-03-01T15:36:02;6.13;;;3.63;;
20036;SDS011;10179;42.640;23.312;2023-03-01T15:38:55;8.63;;;3.80;;
20036;SDS011;10179;42.640;23.312;2023-03-01T15:41:29;7.72;;;3.45;;
20036;SDS011;10179;42.640;23.312;2023-03-01T15:43:56;9.73;;;3.73;;
20036;SDS011;10179;42.640;23.312;2023-03-01T15:46:31;5.80;;;3.05;;
20036;SDS011;10179;42.640;23.312;2023-03-01T15:49:03;5.85;;;3.42;;
20036;SDS011;10179;42.640;23.312;2023-03-01T15:51:32;8.63;;;3.80;;
20036;SDS011;10179;42.640;23.312;2023-03-01T15:54:00;13.02;;;3.70;;
20036;SDS011;10179;42.640;23.312;2023-03-01T15:56:30;8.05;;;3.22;;
20036;SDS011;10179;42.640;23.312;2023-03-01T15:58:59;5.10;;;3.30;;
20036;SDS011;10179;42.640;23.312;2023-03-01T16:01:26;7.13;;;3.55;;
20036;SDS011;10179;42.640;23.312;2023-03-01T16:03:52;5.95;;;3.33;;
20036;SDS011;10179;42.640;23.312;2023-03-01T16:06:18;9.68;;;3.35;;
20036;SDS011;10179;42.640;23.312;2023-03-01T16:08:44;7.10;;;3.25;;
20036;SDS011;10179;42.640;23.312;2023-03-01T16:11:13;10.02;;;3.30;;
20036;SDS011;10179;42.640;23.312;2023-03-01T16:13:43;5.65;;;3.28;;
20036;SDS011;10179;42.640;23.312;2023-03-01T16:16:12;6.20;;;3.30;;
20036;SDS011;10179;42.640;23.312;2023-03-01T16:18:41;4.90;;;3.33;;
20036;SDS011;10179;42.640;23.312;2023-03-01T16:21:11;7.50;;;3.22;;
20036;SDS011;10179;42.640;23.312;2023-03-01T16:23:38;9.40;;;3.10;;
20036;SDS011;10179;42.640;23.312;2023-03-01T16:26:04;5.05;;;3.10;;
20036;SDS011;10179;42.640;23.312;2023-03-01T16:28:29;5.50;;;3.15;;
20036;SDS011;10179;42.640;23.312;2023-03-01T16:30:54;7.45;;;3.13;;
20036;SDS011;10179;42.640;23.312;2023-03-01T16:33:20;8.68;;;3.58;;
20036;SDS011;10179;42.640;23.312;2023-03-01T16:35:45;6.38;;;3.10;;
20036;SDS011;10179;42.640;23.312;2023-03-01T16:38:11;5.70;;;2.80;;
20036;SDS011;10179;42.640;23.312;2023-03-01T16:40:36;7.15;;;2.75;;
20036;SDS011;10179;42.640;23.312;2023-03-01T16:43:02;5.50;;;2.75;;
20036;SDS011;10179;42.640;23.312;2023-03-01T16:45:28;6.25;;;3.08;;
20036;SDS011;10179;42.640;23.312;2023-03-01T16:47:59;4.20;;;2.63;;
20036;SDS011;10179;42.640;23.312;2023-03-01T16:50:24;5.88;;;3.25;;
20036;SDS011;10179;42.640;23.312;2023-03-01T16:52:50;6.47;;;2.72;;
20036;SDS011;10179;42.640;23.312;2023-03-01T16:55:15;5.25;;;2.70;;
20036;SDS011;10179;42.640;23.312;2023-03-01T16:57:41;6.53;;;3.28;;
20036;SDS011;10179;42.640;23.312;2023-03-01T17:00:07;7.18;;;2.97;;
20036;SDS011;10179;42.640;23.312;2023-03-01T17:02:38;5.30;;;3.17;;
20036;SDS011;10179;42.640;23.312;2023-03-01T17:05:04;9.43;;;3.05;;
20036;SDS011;10179;42.640;23.312;2023-03-01T17:07:30;7.03;;;2.70;;